createdAt,value
2019-01-15T00:01:36.749Z,98.90
2019-01-15T00:04:06.314Z,99.00
2019-01-15T00:06:35.749Z,98.90
2019-01-15T00:09:08.586Z,98.90
2019-01-15T00:11:38.290Z,98.80
2019-01-15T00:14:07.800Z,98.90
2019-01-15T00:16:37.286Z,98.80
2019-01-15T00:19:07.084Z,98.80
2019-01-15T00:21:36.468Z,98.80
2019-01-15T00:24:05.882Z,98.90
2019-01-15T00:26:35.263Z,98.90
2019-01-15T00:29:04.831Z,98.90
2019-01-15T00:31:34.210Z,98.90
2019-01-15T00:34:03.636Z,99.00
2019-01-15T00:36:33.005Z,98.90
2019-01-15T00:39:02.401Z,98.90
2019-01-15T00:41:31.787Z,98.90
2019-01-15T00:44:01.232Z,98.90
2019-01-15T00:46:30.633Z,98.90
2019-01-15T00:49:00.021Z,98.90
2019-01-15T00:51:29.475Z,98.90
2019-01-15T00:53:58.853Z,98.90
2019-01-15T00:56:28.263Z,99.00
2019-01-15T00:58:57.654Z,99.00
2019-01-15T01:01:27.118Z,99.10
2019-01-15T01:03:56.586Z,99.10
2019-01-15T01:06:26.021Z,99.20
2019-01-15T01:08:55.404Z,99.20
2019-01-15T01:11:24.879Z,99.20
2019-01-15T01:13:54.385Z,99.30
2019-01-15T01:16:23.840Z,99.40
2019-01-15T01:18:53.232Z,99.50
2019-01-15T01:21:22.673Z,99.50
2019-01-15T01:23:52.056Z,99.50
2019-01-15T01:26:21.525Z,99.60
2019-01-15T01:28:50.892Z,99.60
2019-01-15T01:31:20.294Z,99.70
2019-01-15T01:33:49.676Z,99.80
2019-01-15T01:36:19.065Z,99.80
2019-01-15T01:38:48.451Z,99.80
2019-01-15T01:41:17.843Z,99.90
2019-01-15T01:43:47.203Z,99.90
2019-01-15T01:46:17.071Z,99.90
2019-01-15T01:48:46.459Z,99.90
2019-01-15T01:51:15.905Z,99.90
2019-01-15T01:53:45.357Z,99.90
2019-01-15T01:56:14.858Z,99.90
2019-01-15T01:58:44.249Z,99.90
2019-01-15T02:01:13.669Z,99.90
2019-01-15T02:03:43.058Z,99.90
2019-01-15T02:06:12.434Z,99.90
2019-01-15T02:08:42.001Z,99.90
2019-01-15T02:11:11.388Z,99.80
2019-01-15T02:13:41.217Z,99.90
2019-01-15T02:16:10.674Z,99.70
2019-01-15T02:18:40.050Z,99.70
2019-01-15T02:21:09.498Z,99.70
2019-01-15T02:23:39.017Z,99.70
2019-01-15T02:26:08.423Z,99.70
2019-01-15T02:28:37.807Z,99.60
2019-01-15T02:31:07.287Z,99.50
2019-01-15T02:33:36.656Z,99.50
2019-01-15T02:36:06.065Z,99.40
2019-01-15T02:38:35.578Z,99.40
2019-01-15T02:41:05.220Z,99.30
2019-01-15T02:43:34.861Z,99.40
2019-01-15T02:46:04.533Z,99.30
2019-01-15T02:48:33.984Z,99.30
2019-01-15T02:51:03.429Z,99.30
2019-01-15T02:53:32.892Z,99.30
2019-01-15T02:56:02.294Z,99.40
2019-01-15T02:58:31.662Z,99.40
2019-01-15T03:01:01.133Z,99.40
2019-01-15T03:03:30.545Z,99.50
2019-01-15T03:06:00.188Z,99.50
2019-01-15T03:08:29.841Z,99.50
2019-01-15T03:10:59.517Z,99.50
2019-01-15T03:13:29.079Z,99.50
2019-01-15T03:15:58.976Z,99.50
2019-01-15T03:18:28.579Z,99.50
2019-01-15T03:20:58.071Z,99.60
2019-01-15T03:23:27.627Z,99.60
2019-01-15T03:25:57.054Z,99.50
2019-01-15T03:28:26.474Z,99.50
2019-01-15T03:30:56.006Z,99.50
2019-01-15T03:33:25.480Z,99.60
2019-01-15T03:35:54.862Z,99.60
2019-01-15T03:38:24.208Z,99.60
2019-01-15T03:40:53.606Z,99.50
2019-01-15T03:43:23.045Z,99.50
2019-01-15T03:45:52.430Z,99.40
2019-01-15T03:48:21.822Z,99.80
2019-01-15T03:50:51.254Z,99.40
2019-01-15T03:53:20.698Z,99.50
2019-01-15T03:55:50.156Z,99.50
2019-01-15T03:58:19.614Z,99.50
2019-01-15T04:00:49.060Z,99.50
2019-01-15T04:03:18.457Z,99.60
2019-01-15T04:05:47.887Z,99.60
2019-01-15T04:08:17.247Z,99.60
2019-01-15T04:10:46.641Z,99.70
2019-01-15T04:13:16.075Z,99.70
2019-01-15T04:15:45.413Z,99.60
2019-01-15T04:18:14.822Z,99.70
2019-01-15T04:20:44.510Z,99.60
2019-01-15T04:23:14.172Z,99.60
2019-01-15T04:25:43.586Z,99.70
2019-01-15T04:28:13.158Z,99.80
2019-01-15T04:30:42.569Z,99.70
2019-01-15T04:33:12.029Z,99.70
2019-01-15T04:35:41.450Z,99.80
2019-01-15T04:38:10.891Z,99.70
2019-01-15T04:40:40.319Z,99.70
2019-01-15T04:43:09.822Z,99.90
2019-01-15T04:45:39.225Z,99.90
2019-01-15T04:48:08.711Z,99.80
2019-01-15T04:50:38.157Z,99.80
2019-01-15T04:53:07.528Z,99.90
2019-01-15T04:55:36.911Z,99.90
2019-01-15T04:58:06.317Z,99.90
2019-01-15T05:00:35.828Z,99.90
2019-01-15T05:03:08.780Z,99.90
2019-01-15T05:05:38.155Z,99.90
2019-01-15T05:08:07.767Z,99.90
2019-01-15T05:10:37.114Z,99.90
2019-01-15T05:13:06.494Z,99.90
2019-01-15T05:15:35.933Z,99.90
2019-01-15T05:18:05.411Z,99.90
2019-01-15T05:20:34.830Z,99.90
2019-01-15T05:23:04.251Z,99.90
2019-01-15T05:25:33.672Z,99.90
2019-01-15T05:28:03.136Z,99.90
2019-01-15T05:30:32.593Z,99.90
2019-01-15T05:33:01.992Z,99.90
2019-01-15T05:35:31.361Z,99.90
2019-01-15T05:38:00.710Z,99.90
2019-01-15T05:40:30.088Z,99.90
2019-01-15T05:42:59.548Z,99.90
2019-01-15T05:45:32.746Z,99.90
2019-01-15T05:48:08.194Z,99.90
2019-01-15T05:50:44.138Z,99.90
2019-01-15T05:53:13.883Z,99.90
2019-01-15T05:55:43.571Z,99.90
2019-01-15T05:58:13.368Z,99.90
2019-01-15T06:00:43.034Z,99.90
2019-01-15T06:03:12.783Z,99.90
2019-01-15T06:05:42.390Z,99.90
2019-01-15T06:08:12.127Z,99.90
2019-01-15T06:10:41.673Z,99.90
2019-01-15T06:13:11.498Z,99.90
2019-01-15T06:15:41.174Z,99.90
2019-01-15T06:18:10.848Z,99.90
2019-01-15T06:20:40.389Z,99.90
2019-01-15T06:23:09.913Z,99.90
2019-01-15T06:25:39.609Z,99.90
2019-01-15T06:28:09.210Z,99.90
2019-01-15T06:30:38.748Z,99.90
2019-01-15T06:33:08.404Z,99.90
2019-01-15T06:35:37.946Z,99.90
2019-01-15T06:38:07.451Z,99.90
2019-01-15T06:40:37.080Z,99.90
2019-01-15T06:43:06.659Z,99.90
2019-01-15T06:45:36.103Z,99.90
2019-01-15T06:48:05.804Z,99.90
2019-01-15T06:50:35.427Z,99.90
2019-01-15T06:53:04.999Z,99.90
2019-01-15T06:55:35.627Z,99.90
2019-01-15T06:58:05.313Z,99.90
2019-01-15T07:00:35.337Z,99.90
2019-01-15T07:03:05.788Z,99.90
2019-01-15T07:05:35.422Z,99.90
2019-01-15T07:08:05.224Z,99.90
2019-01-15T07:10:38.044Z,99.90
2019-01-15T07:13:07.762Z,99.90
2019-01-15T07:15:37.381Z,99.90
2019-01-15T07:18:07.055Z,99.90
2019-01-15T07:20:36.713Z,99.90
2019-01-15T07:23:06.427Z,99.90
2019-01-15T07:25:37.653Z,99.90
2019-01-15T07:28:07.276Z,99.90
2019-01-15T07:30:47.283Z,99.90
2019-01-15T07:33:17.052Z,99.90
2019-01-15T07:35:46.655Z,99.90
2019-01-15T07:38:16.323Z,99.90
2019-01-15T07:40:46.027Z,99.90
2019-01-15T07:43:15.787Z,99.90
2019-01-15T07:45:45.479Z,99.90
2019-01-15T07:48:15.261Z,99.90
2019-01-15T07:50:45.049Z,99.90
2019-01-15T07:53:14.682Z,99.90
2019-01-15T07:55:44.362Z,99.90
2019-01-15T07:58:13.992Z,99.90
2019-01-15T08:00:43.766Z,99.90
2019-01-15T08:03:13.469Z,99.90
2019-01-15T08:05:43.094Z,99.90
2019-01-15T08:08:12.675Z,99.90
2019-01-15T08:10:42.495Z,99.90
2019-01-15T08:13:12.254Z,99.90
2019-01-15T08:15:41.810Z,99.90
2019-01-15T08:18:11.572Z,99.90
2019-01-15T08:20:41.210Z,99.90
2019-01-15T08:23:10.944Z,99.90
2019-01-15T08:25:40.712Z,99.90
2019-01-15T08:28:10.406Z,99.90
2019-01-15T08:30:40.152Z,99.90
2019-01-15T08:33:09.907Z,99.90
2019-01-15T08:35:39.806Z,99.90
2019-01-15T08:38:09.532Z,99.90
2019-01-15T08:40:39.321Z,99.90
2019-01-15T08:43:09.074Z,99.90
2019-01-15T08:45:38.878Z,99.90
2019-01-15T08:48:12.313Z,99.90
2019-01-15T08:50:42.004Z,99.90
2019-01-15T08:53:13.270Z,99.90
2019-01-15T08:55:42.944Z,99.90
2019-01-15T08:58:12.606Z,99.90
2019-01-15T09:00:42.122Z,99.90
2019-01-15T09:03:11.724Z,99.90
2019-01-15T09:05:42.201Z,99.90
2019-01-15T09:08:12.138Z,99.90
2019-01-15T09:10:41.854Z,99.90
2019-01-15T09:13:11.531Z,99.90
2019-01-15T09:15:41.282Z,99.90
2019-01-15T09:18:10.950Z,99.90
2019-01-15T09:20:40.758Z,99.90
2019-01-15T09:23:10.455Z,99.90
2019-01-15T09:25:41.583Z,99.90
2019-01-15T09:28:11.402Z,99.90
2019-01-15T09:30:41.175Z,99.90
2019-01-15T09:33:11.525Z,99.90
2019-01-15T09:35:41.128Z,99.90
2019-01-15T09:38:11.101Z,99.90
2019-01-15T09:40:40.881Z,99.90
2019-01-15T09:43:10.640Z,99.90
2019-01-15T09:45:40.257Z,99.90
2019-01-15T09:48:17.305Z,99.90
2019-01-15T09:50:46.807Z,99.90
2019-01-15T09:53:16.490Z,99.90
2019-01-15T09:55:46.130Z,99.90
2019-01-15T09:58:15.564Z,99.90
2019-01-15T10:00:45.316Z,99.90
2019-01-15T10:03:15.057Z,99.90
2019-01-15T10:05:44.670Z,99.90
2019-01-15T10:08:14.438Z,99.90
2019-01-15T10:10:44.235Z,99.90
2019-01-15T10:13:13.905Z,99.90
2019-01-15T10:15:43.547Z,99.90
2019-01-15T10:18:13.293Z,99.90
2019-01-15T10:20:42.930Z,99.70
2019-01-15T10:23:12.563Z,99.50
2019-01-15T10:25:42.923Z,99.80
2019-01-15T10:28:13.380Z,99.60
2019-01-15T10:31:33.097Z,99.70
2019-01-15T10:34:15.195Z,99.70
2019-01-15T10:36:43.483Z,99.60
2019-01-15T10:39:14.828Z,99.70
2019-01-15T10:41:44.377Z,99.60
2019-01-15T10:44:13.962Z,99.70
2019-01-15T10:46:43.636Z,99.70
2019-01-15T10:49:13.362Z,99.70
2019-01-15T10:51:42.967Z,99.90
2019-01-15T10:54:12.533Z,99.70
2019-01-15T10:56:42.226Z,99.90
2019-01-15T10:59:11.893Z,99.90
2019-01-15T11:01:41.670Z,99.90
2019-01-15T11:04:11.859Z,99.90
2019-01-15T11:06:41.560Z,99.90
2019-01-15T11:09:11.230Z,99.90
2019-01-15T11:11:40.820Z,99.90
2019-01-15T11:14:14.306Z,99.90
2019-01-15T11:16:44.044Z,99.90
2019-01-15T11:19:13.616Z,99.90
2019-01-15T11:21:43.302Z,99.90
2019-01-15T11:24:12.870Z,99.90
2019-01-15T11:26:42.776Z,99.90
2019-01-15T11:29:12.725Z,99.90
2019-01-15T11:31:42.403Z,99.90
2019-01-15T11:34:12.100Z,99.90
2019-01-15T11:36:41.852Z,99.90
2019-01-15T11:39:11.521Z,99.90
2019-01-15T11:41:41.331Z,99.80
2019-01-15T11:44:11.125Z,99.90
2019-01-15T11:46:40.940Z,99.90
2019-01-15T11:49:10.932Z,99.90
2019-01-15T11:51:40.803Z,99.90
2019-01-15T11:54:10.554Z,99.70
2019-01-15T12:00:33.646Z,99.90
2019-01-15T12:03:20.484Z,99.70
2019-01-15T12:06:08.109Z,99.70
2019-01-15T12:08:54.476Z,99.60
2019-01-15T12:11:48.997Z,99.60
2019-01-15T12:14:46.647Z,99.50
2019-01-15T12:17:34.261Z,99.60
2019-01-15T12:20:15.325Z,99.50
2019-01-15T12:22:57.554Z,99.50
2019-01-15T12:25:49.997Z,99.60
2019-01-15T12:28:37.357Z,99.60
2019-01-15T12:31:29.113Z,99.70
2019-01-15T12:34:29.741Z,99.90
2019-01-15T12:37:24.753Z,99.60
2019-01-15T12:40:28.477Z,99.60
2019-01-15T12:43:17.171Z,99.90
2019-01-15T12:46:06.207Z,99.60
2019-01-15T12:48:53.431Z,99.40
2019-01-15T12:51:42.597Z,99.30
2019-01-15T12:54:31.131Z,99.40
2019-01-15T12:57:19.201Z,99.30
2019-01-15T13:00:06.838Z,99.40
2019-01-15T13:02:51.467Z,99.50
2019-01-15T13:05:45.895Z,99.50
2019-01-15T13:08:47.106Z,99.40
2019-01-15T13:11:34.507Z,99.40
2019-01-15T13:14:25.797Z,99.40
2019-01-15T13:17:11.958Z,99.20
2019-01-15T13:19:55.701Z,99.20
2019-01-15T13:22:53.511Z,99.10
2019-01-15T13:25:40.726Z,99.10
2019-01-15T13:28:17.894Z,99.10
2019-01-15T13:31:12.217Z,99.10
2019-01-15T13:34:03.634Z,99.20
2019-01-15T13:36:41.578Z,99.00
2019-01-15T13:39:30.336Z,99.10
2019-01-15T13:42:17.684Z,99.20
2019-01-15T13:45:09.056Z,99.20
2019-01-15T13:48:03.465Z,99.10
2019-01-15T13:50:50.598Z,98.90
2019-01-15T13:53:51.366Z,98.80
2019-01-15T13:56:42.912Z,98.90
2019-01-15T13:59:30.258Z,98.70
2019-01-15T14:02:21.945Z,98.70
2019-01-15T14:05:13.590Z,98.70
2019-01-15T14:08:02.364Z,98.50
2019-01-15T14:10:43.242Z,98.50
2019-01-15T14:13:30.583Z,98.40
2019-01-15T14:16:18.218Z,98.30
2019-01-15T14:19:09.991Z,98.50
2019-01-15T14:22:11.502Z,98.40
2019-01-15T14:24:58.787Z,98.50
2019-01-15T14:27:59.753Z,98.50
2019-01-15T14:30:51.367Z,98.40
2019-01-15T14:33:31.667Z,98.40
2019-01-15T14:36:20.357Z,98.40
2019-01-15T14:39:07.119Z,98.60
2019-01-15T14:42:11.328Z,98.70
2019-01-15T14:44:57.029Z,98.70
2019-01-15T14:47:40.660Z,98.80
2019-01-15T14:50:29.017Z,98.70
2019-01-15T14:53:14.261Z,98.70
2019-01-15T14:56:02.991Z,98.70
2019-01-15T14:58:51.971Z,98.40
2019-01-15T15:01:39.427Z,98.70
2019-01-15T15:04:40.035Z,98.70
2019-01-15T15:07:40.941Z,98.50
2019-01-15T15:10:28.750Z,98.70
2019-01-15T15:13:12.470Z,98.70
2019-01-15T15:16:12.676Z,98.60
2019-01-15T15:18:53.213Z,98.70
2019-01-15T15:21:40.615Z,98.80
2019-01-15T15:24:27.753Z,98.70
2019-01-15T15:27:25.121Z,98.70
2019-01-15T15:30:19.699Z,98.70
2019-01-15T15:33:26.698Z,98.80
2019-01-15T15:36:15.314Z,98.90
2019-01-15T15:38:57.420Z,98.90
2019-01-15T15:53:09.015Z,98.70
2019-01-15T15:56:00.649Z,98.70
2019-01-15T15:58:42.258Z,98.60
2019-01-15T16:01:46.173Z,98.60
2019-01-15T16:04:30.994Z,98.70
2019-01-15T16:07:15.955Z,98.70
2019-01-15T16:10:03.288Z,98.80
2019-01-15T16:12:54.512Z,98.80
2019-01-15T16:15:41.043Z,98.90
2019-01-15T16:18:22.878Z,99.00
2019-01-15T16:21:14.432Z,98.90
2019-01-15T16:24:00.755Z,99.00
2019-01-15T16:26:47.947Z,98.90
2019-01-15T16:29:36.576Z,98.90
2019-01-15T16:32:22.176Z,99.00
2019-01-15T16:35:09.730Z,99.00
2019-01-15T16:38:01.662Z,99.00
2019-01-15T16:40:50.282Z,99.10
2019-01-15T16:43:37.683Z,99.10
2019-01-15T16:46:32.299Z,99.10
2019-01-15T16:49:19.524Z,99.10
2019-01-15T16:52:07.360Z,99.10
2019-01-15T16:54:58.405Z,99.00
2019-01-15T16:57:42.176Z,99.00
2019-01-15T17:00:34.129Z,99.10
2019-01-15T17:03:21.632Z,98.90
2019-01-15T17:06:07.330Z,98.90
2019-01-15T17:09:02.107Z,98.80
2019-01-15T17:11:49.480Z,98.90
2019-01-15T17:14:53.496Z,99.00
2019-01-15T17:17:40.819Z,99.00
2019-01-15T17:20:20.210Z,99.10
2019-01-15T17:23:03.817Z,99.10
2019-01-15T17:25:51.034Z,99.10
2019-01-15T17:28:34.260Z,99.10
2019-01-15T17:31:21.782Z,99.10
2019-01-15T17:34:02.293Z,99.00
2019-01-15T17:37:09.179Z,99.10
2019-01-15T17:39:54.993Z,99.10
2019-01-15T17:42:36.231Z,99.10
2019-01-15T17:45:26.382Z,99.10
2019-01-15T17:48:17.967Z,99.10
2019-01-15T17:51:05.168Z,99.10
2019-01-15T17:53:45.839Z,99.00
2019-01-15T17:56:34.111Z,99.00
2019-01-15T17:59:33.001Z,99.20
2019-01-15T18:02:20.415Z,99.20
2019-01-15T18:05:15.059Z,99.20
2019-01-15T18:08:01.213Z,99.20
2019-01-15T18:11:02.013Z,99.20
2019-01-15T18:13:56.493Z,99.00
2019-01-15T18:16:48.713Z,99.00
2019-01-15T18:19:41.467Z,99.00
2019-01-15T18:22:32.723Z,99.00
2019-01-15T18:25:19.439Z,99.00
2019-01-15T18:28:06.739Z,98.90
2019-01-15T18:30:55.549Z,98.90
2019-01-15T18:33:46.699Z,99.00
2019-01-15T18:36:38.413Z,98.90
2019-01-15T18:39:26.775Z,98.80
2019-01-15T18:42:13.771Z,98.80
2019-01-15T18:44:59.154Z,98.80
2019-01-15T18:47:40.080Z,98.80
2019-01-15T18:50:29.037Z,98.80
2019-01-15T18:53:16.371Z,98.90
2019-01-15T18:56:08.119Z,98.80
2019-01-15T18:58:58.597Z,98.80
2019-01-15T19:01:43.865Z,98.90
2019-01-15T19:04:41.904Z,98.90
2019-01-15T19:07:28.035Z,99.00
2019-01-15T19:10:15.610Z,99.00
2019-01-15T19:13:13.336Z,99.00
2019-01-15T19:16:00.408Z,98.90
2019-01-15T19:18:47.887Z,98.90
2019-01-15T19:21:51.392Z,98.70
2019-01-15T19:24:58.144Z,98.80
2019-01-15T19:27:52.536Z,98.80
2019-01-15T19:30:47.003Z,98.70
2019-01-15T19:33:34.366Z,98.70
2019-01-15T19:36:21.580Z,98.70
2019-01-15T19:39:12.899Z,98.80
2019-01-15T19:42:05.570Z,98.80
2019-01-15T19:44:54.311Z,98.70
2019-01-15T19:47:55.264Z,98.80
2019-01-15T19:50:42.682Z,98.90
2019-01-15T19:53:34.886Z,98.80
2019-01-15T19:56:24.725Z,98.80
2019-01-15T19:59:04.542Z,99.00
2019-01-15T20:01:54.511Z,98.80
2019-01-15T20:04:34.914Z,98.90
2019-01-15T20:07:26.467Z,98.90
2019-01-15T20:10:33.109Z,99.00
2019-01-15T20:13:20.871Z,99.00
2019-01-15T20:16:07.240Z,99.00
2019-01-15T20:19:14.169Z,99.10
2019-01-15T20:21:58.262Z,99.10
2019-01-15T20:24:56.013Z,99.00
2019-01-15T20:27:54.572Z,99.10
2019-01-15T20:30:51.987Z,99.30
2019-01-15T20:33:42.071Z,99.30
2019-01-15T20:36:21.405Z,99.30
2019-01-15T20:39:15.497Z,99.30
2019-01-15T20:42:08.788Z,99.40
2019-01-15T20:44:55.862Z,99.30
2019-01-15T20:47:42.436Z,99.30
2019-01-15T20:50:49.227Z,99.30
2019-01-15T20:53:27.788Z,99.30
2019-01-15T20:56:15.288Z,99.20
2019-01-15T20:58:58.536Z,99.30
2019-01-15T21:01:47.053Z,99.30
2019-01-15T21:04:50.619Z,99.40
2019-01-15T21:07:37.750Z,99.40
2019-01-15T21:10:31.705Z,99.50
2019-01-15T21:13:15.313Z,99.50
2019-01-15T21:16:09.425Z,99.40
2019-01-15T21:19:04.183Z,99.50
2019-01-15T21:21:45.109Z,99.50
2019-01-15T21:24:53.761Z,99.50
2019-01-15T21:27:33.969Z,99.50
2019-01-15T21:30:21.627Z,99.50
2019-01-15T21:33:08.824Z,99.50
2019-01-15T21:36:00.189Z,99.50
2019-01-15T21:38:54.903Z,99.50
2019-01-15T21:41:52.238Z,99.50
2019-01-15T21:48:11.877Z,99.40
2019-01-15T21:51:00.327Z,99.40
2019-01-15T21:53:47.802Z,99.50
2019-01-15T21:56:51.494Z,99.40
2019-01-15T21:59:47.066Z,99.40
2019-01-15T22:02:34.554Z,99.30
2019-01-15T22:05:36.146Z,99.20
2019-01-15T22:08:24.770Z,99.30
2019-01-15T22:11:18.973Z,99.30
2019-01-15T22:17:51.320Z,99.30
2019-01-15T22:20:39.836Z,99.60
2019-01-15T22:23:34.094Z,99.30
2019-01-15T22:26:28.969Z,99.40
2019-01-15T22:29:12.263Z,99.40
2019-01-15T22:31:59.228Z,99.40
2019-01-15T22:34:52.963Z,99.40
2019-01-15T22:37:49.663Z,99.30
2019-01-15T22:40:40.197Z,99.20
2019-01-15T22:43:28.676Z,99.20
2019-01-15T22:46:11.566Z,99.20
2019-01-15T22:49:15.176Z,99.20
2019-01-15T22:52:03.055Z,99.20
2019-01-15T22:54:54.489Z,99.20
2019-01-15T22:57:43.464Z,99.20
2019-01-15T23:00:38.410Z,99.20
2019-01-15T23:03:35.688Z,99.20
2019-01-15T23:06:23.176Z,99.20
2019-01-15T23:09:14.372Z,99.10
2019-01-15T23:12:13.261Z,99.10
2019-01-15T23:14:53.936Z,99.10
2019-01-15T23:17:37.580Z,99.20
2019-01-15T23:20:42.169Z,99.20
2019-01-15T23:23:33.339Z,99.30
2019-01-15T23:26:40.055Z,99.20
2019-01-15T23:29:28.555Z,99.10
2019-01-15T23:32:22.971Z,99.00
2019-01-15T23:35:04.762Z,99.00
2019-01-15T23:37:51.672Z,99.00
2019-01-15T23:40:46.071Z,98.80
2019-01-15T23:43:34.517Z,98.70
2019-01-15T23:46:23.167Z,98.80
2019-01-15T23:49:08.529Z,98.90
2019-01-15T23:52:03.261Z,98.80
2019-01-15T23:54:50.560Z,98.70
